Warroad, MN

00:17 CDT le 21 octobre 2014 (GMT -0500)
Warroad International-Carlson | Change Station
CLOSE
Current Station
Aéroport
Location: Warroad,
Altitude: 1073 ft
Stations météo à proximité

Alt. 1073 ft 48.94 °N, 95.35 °W | Updated 24 minutes ago

Ciel dégagé
Ciel dégagé
39 ° F
Paraît 34 ° F
N
7
Vent Variable Vent de SE

Aujourd'hui
Haut(e) -- | Bas -- ° F
--% Risque de précip.
Hier
Haut(e) -- | Bas -- ° F
Precip. -- pouce
7:51 AM 6:19 PM
Lune descendante, 7% visible
Pression 30.11 pouce
Visibilité 10.0 Miles terrestres
Nuages Ciel dégagé
Refroidissement éolien 34 ° F
Point de rosée 36 ° F
Humidité 87%
Précipitations 0.00 pouce
Profondeur de la couche neigeuse Non disponible.
UV 0 sur 12
Pollen 1.00 sur 12
Qualité de l'air Non disponible.
Flu Activity Non disponible.
METAR KRRT 210453Z AUTO 13006KT 10SM CLR 04/02 A3011 RMK AO2

More Conditions Fewer Conditions

Pression 30.11 pouce
Visibilité 10.0 Miles terrestres
Nuages Ciel dégagé
Refroidissement éolien 34 ° F
Point de rosée 36 ° F
Humidité 87%
Précipitations 0.00 pouce
Profondeur de la couche neigeuse Non disponible.
UV 0 sur 12
Pollen 1.00 sur 12
Qualité de l'air Non disponible.
Flu Activity Non disponible.
METAR KRRT 210453Z AUTO 13006KT 10SM CLR 04/02 A3011 RMK AO2

More Conditions Fewer Conditions

10-Day Weather Forecast

Almanac

Astronomie

Oct. 21, 2014 Lever Coucher
Temps réel 07:51 CDT 18:19 CDT
Crépuscule civil 07:18 CDT 18:52 CDT
Crépuscule nautique 06:42 CDT 19:28 CDT
Crépuscule astronomique 06:05 CDT 20:05 CDT
Lune 05:25 CDT 17:23 CDT
Durée de lumière visible 11h 33m
Longueur du jour
10h 28m
Tomorrow will be 3m 24s shorter.
Lune descendante, 7% of the Moon is Illuminated
Aujourd'hui
Lune descendante
Oct 23
Nouveau
Oct 30
Premier quartier
Nov 6
Pleine lune
Nov 14
Dernier quartier

Extrêmes aujourd'hui

State Highs State Lows

Community

WunderPhotos

Upload Photos

1,763,612 Photos téléchargées !

Nearby

Épaisseur de neige

Station Depth Altitude
Pas de nouvelles chutes de neige

Activité sismique

Ville Distance Mag. Time & Date
No recent earthquake activity has been reported nearby.
Minimum magnitude displayed is 2.5.

Températures des eaux côtières

Lieu Température
Aucun rapport de station

Stations météo à proximité